sensor_id;sensor_type;location;lat;lon;timestamp;temperature;humidity
16160;DHT22;8185;57.818;15.224;2023-04-24T00:02:02;6.10;99.90
16160;DHT22;8185;57.818;15.224;2023-04-24T00:04:32;6.20;99.90
16160;DHT22;8185;57.818;15.224;2023-04-24T00:06:59;6.10;99.90
16160;DHT22;8185;57.818;15.224;2023-04-24T00:09:26;6.10;99.90
16160;DHT22;8185;57.818;15.224;2023-04-24T00:11:54;6.20;99.90
16160;DHT22;8185;57.818;15.224;2023-04-24T00:14:21;6.10;99.90
16160;DHT22;8185;57.818;15.224;2023-04-24T00:16:49;6.10;99.90
16160;DHT22;8185;57.818;15.224;2023-04-24T00:19:17;6.10;99.90
16160;DHT22;8185;57.818;15.224;2023-04-24T00:21:47;6.10;99.90
16160;DHT22;8185;57.818;15.224;2023-04-24T00:24:15;6.00;99.90
16160;DHT22;8185;57.818;15.224;2023-04-24T00:26:42;6.00;99.90
16160;DHT22;8185;57.818;15.224;2023-04-24T00:29:10;5.90;99.90
16160;DHT22;8185;57.818;15.224;2023-04-24T00:31:37;5.90;99.90
16160;DHT22;8185;57.818;15.224;2023-04-24T00:34:04;5.90;99.90
16160;DHT22;8185;57.818;15.224;2023-04-24T00:36:33;6.00;99.90
16160;DHT22;8185;57.818;15.224;2023-04-24T00:39:00;6.00;99.90
16160;DHT22;8185;57.818;15.224;2023-04-24T00:41:28;6.00;99.90
16160;DHT22;8185;57.818;15.224;2023-04-24T00:43:55;6.00;99.90
16160;DHT22;8185;57.818;15.224;2023-04-24T00:46:22;6.00;99.90
16160;DHT22;8185;57.818;15.224;2023-04-24T00:48:50;5.90;99.90
16160;DHT22;8185;57.818;15.224;2023-04-24T00:51:17;5.90;99.90
16160;DHT22;8185;57.818;15.224;2023-04-24T00:53:46;5.90;99.90
16160;DHT22;8185;57.818;15.224;2023-04-24T00:56:13;5.80;99.90
16160;DHT22;8185;57.818;15.224;2023-04-24T00:58:41;5.80;99.90
16160;DHT22;8185;57.818;15.224;2023-04-24T01:01:09;5.90;99.90
16160;DHT22;8185;57.818;15.224;2023-04-24T01:03:37;5.90;99.90
16160;DHT22;8185;57.818;15.224;2023-04-24T01:06:05;5.90;99.90
16160;DHT22;8185;57.818;15.224;2023-04-24T01:08:33;5.90;99.90
16160;DHT22;8185;57.818;15.224;2023-04-24T01:11:04;5.90;99.90
16160;DHT22;8185;57.818;15.224;2023-04-24T01:13:32;5.90;99.90
16160;DHT22;8185;57.818;15.224;2023-04-24T01:15:59;5.90;99.90
16160;DHT22;8185;57.818;15.224;2023-04-24T01:18:27;5.90;99.90
16160;DHT22;8185;57.818;15.224;2023-04-24T01:20:57;5.80;99.90
16160;DHT22;8185;57.818;15.224;2023-04-24T01:23:26;5.80;99.90
16160;DHT22;8185;57.818;15.224;2023-04-24T01:25:53;5.80;99.90
16160;DHT22;8185;57.818;15.224;2023-04-24T01:28:21;5.70;99.90
16160;DHT22;8185;57.818;15.224;2023-04-24T01:30:48;5.70;99.90
16160;DHT22;8185;57.818;15.224;2023-04-24T01:33:16;5.80;99.90
16160;DHT22;8185;57.818;15.224;2023-04-24T01:35:43;5.80;99.90
16160;DHT22;8185;57.818;15.224;2023-04-24T01:38:11;5.70;99.90
16160;DHT22;8185;57.818;15.224;2023-04-24T01:40:39;5.80;99.90
16160;DHT22;8185;57.818;15.224;2023-04-24T01:43:07;5.80;99.90
16160;DHT22;8185;57.818;15.224;2023-04-24T01:45:34;5.80;99.90
16160;DHT22;8185;57.818;15.224;2023-04-24T01:48:02;5.80;99.90
16160;DHT22;8185;57.818;15.224;2023-04-24T01:50:29;5.80;99.90
16160;DHT22;8185;57.818;15.224;2023-04-24T01:52:56;5.80;99.90
16160;DHT22;8185;57.818;15.224;2023-04-24T01:55:23;5.70;99.90
16160;DHT22;8185;57.818;15.224;2023-04-24T01:57:52;5.70;99.90
16160;DHT22;8185;57.818;15.224;2023-04-24T02:00:22;5.70;99.90
16160;DHT22;8185;57.818;15.224;2023-04-24T02:02:50;5.80;99.90
16160;DHT22;8185;57.818;15.224;2023-04-24T02:05:17;5.80;99.90
16160;DHT22;8185;57.818;15.224;2023-04-24T02:07:44;5.80;99.90
16160;DHT22;8185;57.818;15.224;2023-04-24T02:10:11;5.80;99.90
16160;DHT22;8185;57.818;15.224;2023-04-24T02:12:38;5.70;99.90
16160;DHT22;8185;57.818;15.224;2023-04-24T02:15:08;5.70;99.90
16160;DHT22;8185;57.818;15.224;2023-04-24T02:17:35;5.70;99.90
16160;DHT22;8185;57.818;15.224;2023-04-24T02:20:02;5.70;99.90
16160;DHT22;8185;57.818;15.224;2023-04-24T02:22:30;5.70;99.90
16160;DHT22;8185;57.818;15.224;2023-04-24T02:24:57;5.70;99.90
16160;DHT22;8185;57.818;15.224;2023-04-24T02:27:24;5.60;99.90
16160;DHT22;8185;57.818;15.224;2023-04-24T02:29:51;5.60;99.90
16160;DHT22;8185;57.818;15.224;2023-04-24T02:32:20;5.70;99.90
16160;DHT22;8185;57.818;15.224;2023-04-24T02:34:47;5.60;99.90
16160;DHT22;8185;57.818;15.224;2023-04-24T02:37:14;5.60;99.90
16160;DHT22;8185;57.818;15.224;2023-04-24T02:39:41;5.60;99.90
16160;DHT22;8185;57.818;15.224;2023-04-24T02:42:09;5.60;99.90
16160;DHT22;8185;57.818;15.224;2023-04-24T02:44:36;5.50;99.90
16160;DHT22;8185;57.818;15.224;2023-04-24T02:47:03;5.50;99.90
16160;DHT22;8185;57.818;15.224;2023-04-24T02:49:32;5.50;99.90
16160;DHT22;8185;57.818;15.224;2023-04-24T02:51:59;5.50;99.90
16160;DHT22;8185;57.818;15.224;2023-04-24T02:54:26;5.50;99.90
16160;DHT22;8185;57.818;15.224;2023-04-24T02:56:54;5.40;99.90
16160;DHT22;8185;57.818;15.224;2023-04-24T02:59:22;5.40;99.90
16160;DHT22;8185;57.818;15.224;2023-04-24T03:01:49;5.40;99.90
16160;DHT22;8185;57.818;15.224;2023-04-24T03:04:16;5.50;99.90
16160;DHT22;8185;57.818;15.224;2023-04-24T03:06:47;5.40;99.90
16160;DHT22;8185;57.818;15.224;2023-04-24T03:09:14;5.50;99.90
16160;DHT22;8185;57.818;15.224;2023-04-24T03:11:41;5.50;99.90
16160;DHT22;8185;57.818;15.224;2023-04-24T03:14:09;5.50;99.90
16160;DHT22;8185;57.818;15.224;2023-04-24T03:16:37;5.40;99.90
16160;DHT22;8185;57.818;15.224;2023-04-24T03:19:04;5.50;99.90
16160;DHT22;8185;57.818;15.224;2023-04-24T03:21:31;5.40;99.90
16160;DHT22;8185;57.818;15.224;2023-04-24T03:24:00;5.50;99.90
16160;DHT22;8185;57.818;15.224;2023-04-24T03:26:27;5.40;99.90
16160;DHT22;8185;57.818;15.224;2023-04-24T03:28:55;5.40;99.90
16160;DHT22;8185;57.818;15.224;2023-04-24T03:31:22;5.50;99.90
16160;DHT22;8185;57.818;15.224;2023-04-24T03:33:49;5.50;99.90
16160;DHT22;8185;57.818;15.224;2023-04-24T03:36:16;5.50;99.90
16160;DHT22;8185;57.818;15.224;2023-04-24T03:38:44;5.50;99.90
16160;DHT22;8185;57.818;15.224;2023-04-24T03:41:13;5.50;99.90
16160;DHT22;8185;57.818;15.224;2023-04-24T03:43:40;5.50;99.90
16160;DHT22;8185;57.818;15.224;2023-04-24T03:46:07;5.50;99.90
16160;DHT22;8185;57.818;15.224;2023-04-24T03:48:35;5.50;99.90
16160;DHT22;8185;57.818;15.224;2023-04-24T03:51:02;5.40;99.90
16160;DHT22;8185;57.818;15.224;2023-04-24T03:53:30;5.40;99.90
16160;DHT22;8185;57.818;15.224;2023-04-24T03:55:57;5.30;99.90
16160;DHT22;8185;57.818;15.224;2023-04-24T03:58:25;5.30;99.90
16160;DHT22;8185;57.818;15.224;2023-04-24T04:00:52;5.20;99.90
16160;DHT22;8185;57.818;15.224;2023-04-24T04:03:20;5.20;99.90
16160;DHT22;8185;57.818;15.224;2023-04-24T04:05:47;5.20;99.90
16160;DHT22;8185;57.818;15.224;2023-04-24T04:08:14;5.20;99.90
16160;DHT22;8185;57.818;15.224;2023-04-24T04:10:41;5.20;99.90
16160;DHT22;8185;57.818;15.224;2023-04-24T04:13:09;5.20;99.90
16160;DHT22;8185;57.818;15.224;2023-04-24T04:15:37;5.20;99.90
16160;DHT22;8185;57.818;15.224;2023-04-24T04:18:04;5.20;99.90
16160;DHT22;8185;57.818;15.224;2023-04-24T04:20:32;5.20;99.90
16160;DHT22;8185;57.818;15.224;2023-04-24T04:22:59;5.20;99.90
16160;DHT22;8185;57.818;15.224;2023-04-24T04:25:26;5.20;99.90
16160;DHT22;8185;57.818;15.224;2023-04-24T04:27:55;5.20;99.90
16160;DHT22;8185;57.818;15.224;2023-04-24T04:30:23;5.20;99.90
16160;DHT22;8185;57.818;15.224;2023-04-24T04:32:53;5.30;99.90
16160;DHT22;8185;57.818;15.224;2023-04-24T04:35:20;5.20;99.90
16160;DHT22;8185;57.818;15.224;2023-04-24T04:37:47;5.20;99.90
16160;DHT22;8185;57.818;15.224;2023-04-24T04:40:14;5.20;99.90
16160;DHT22;8185;57.818;15.224;2023-04-24T04:42:41;5.20;99.90
16160;DHT22;8185;57.818;15.224;2023-04-24T04:45:11;5.30;99.90
16160;DHT22;8185;57.818;15.224;2023-04-24T04:47:38;5.30;99.90
16160;DHT22;8185;57.818;15.224;2023-04-24T04:50:08;5.30;99.90
16160;DHT22;8185;57.818;15.224;2023-04-24T04:52:36;5.40;99.90
16160;DHT22;8185;57.818;15.224;2023-04-24T04:55:03;5.50;99.90
16160;DHT22;8185;57.818;15.224;2023-04-24T04:57:31;5.50;99.90
16160;DHT22;8185;57.818;15.224;2023-04-24T04:59:58;5.60;99.90
16160;DHT22;8185;57.818;15.224;2023-04-24T05:02:25;5.60;99.90
16160;DHT22;8185;57.818;15.224;2023-04-24T05:04:53;5.60;99.90
16160;DHT22;8185;57.818;15.224;2023-04-24T05:07:21;5.70;99.90
16160;DHT22;8185;57.818;15.224;2023-04-24T05:09:48;5.70;99.90
16160;DHT22;8185;57.818;15.224;2023-04-24T05:12:17;5.80;99.90
16160;DHT22;8185;57.818;15.224;2023-04-24T05:14:44;5.70;99.90
16160;DHT22;8185;57.818;15.224;2023-04-24T05:17:11;5.60;99.90
16160;DHT22;8185;57.818;15.224;2023-04-24T05:19:38;5.70;99.90
16160;DHT22;8185;57.818;15.224;2023-04-24T05:22:06;5.70;99.90
16160;DHT22;8185;57.818;15.224;2023-04-24T05:24:34;5.60;99.90
16160;DHT22;8185;57.818;15.224;2023-04-24T05:27:02;5.70;99.90
16160;DHT22;8185;57.818;15.224;2023-04-24T05:29:30;5.80;99.90
16160;DHT22;8185;57.818;15.224;2023-04-24T05:31:59;5.80;99.90
16160;DHT22;8185;57.818;15.224;2023-04-24T05:34:26;5.80;99.90
16160;DHT22;8185;57.818;15.224;2023-04-24T05:36:53;5.90;99.90
16160;DHT22;8185;57.818;15.224;2023-04-24T05:39:21;5.90;99.90
16160;DHT22;8185;57.818;15.224;2023-04-24T05:41:50;5.90;99.90
16160;DHT22;8185;57.818;15.224;2023-04-24T05:44:18;6.00;99.90
16160;DHT22;8185;57.818;15.224;2023-04-24T05:46:45;6.10;99.90
16160;DHT22;8185;57.818;15.224;2023-04-24T05:49:12;6.10;99.90
16160;DHT22;8185;57.818;15.224;2023-04-24T05:51:39;6.20;99.90
16160;DHT22;8185;57.818;15.224;2023-04-24T05:54:07;6.30;99.90
16160;DHT22;8185;57.818;15.224;2023-04-24T05:56:34;6.40;99.90
16160;DHT22;8185;57.818;15.224;2023-04-24T05:59:02;6.30;99.90
16160;DHT22;8185;57.818;15.224;2023-04-24T06:01:30;6.40;99.90
16160;DHT22;8185;57.818;15.224;2023-04-24T06:03:57;6.50;99.90
16160;DHT22;8185;57.818;15.224;2023-04-24T06:06:25;6.60;99.90
16160;DHT22;8185;57.818;15.224;2023-04-24T06:08:52;6.60;99.90
16160;DHT22;8185;57.818;15.224;2023-04-24T06:11:20;6.50;99.90
16160;DHT22;8185;57.818;15.224;2023-04-24T06:13:47;6.70;99.90
16160;DHT22;8185;57.818;15.224;2023-04-24T06:16:16;6.70;99.90
16160;DHT22;8185;57.818;15.224;2023-04-24T06:18:43;6.70;99.90
16160;DHT22;8185;57.818;15.224;2023-04-24T06:21:12;6.80;99.90
16160;DHT22;8185;57.818;15.224;2023-04-24T06:23:40;7.00;99.90
16160;DHT22;8185;57.818;15.224;2023-04-24T06:26:07;7.00;99.90
16160;DHT22;8185;57.818;15.224;2023-04-24T06:28:34;7.00;99.90
16160;DHT22;8185;57.818;15.224;2023-04-24T06:31:01;6.90;99.90
16160;DHT22;8185;57.818;15.224;2023-04-24T06:33:30;7.00;99.90
16160;DHT22;8185;57.818;15.224;2023-04-24T06:35:57;7.10;99.90
16160;DHT22;8185;57.818;15.224;2023-04-24T06:38:24;7.20;99.90
16160;DHT22;8185;57.818;15.224;2023-04-24T06:40:52;7.20;99.90
16160;DHT22;8185;57.818;15.224;2023-04-24T06:43:19;7.40;99.90
16160;DHT22;8185;57.818;15.224;2023-04-24T06:45:46;7.50;99.90
16160;DHT22;8185;57.818;15.224;2023-04-24T06:48:14;7.60;99.90
16160;DHT22;8185;57.818;15.224;2023-04-24T06:50:43;7.60;99.90
16160;DHT22;8185;57.818;15.224;2023-04-24T06:53:10;7.70;99.90
16160;DHT22;8185;57.818;15.224;2023-04-24T06:55:40;7.90;99.90
16160;DHT22;8185;57.818;15.224;2023-04-24T06:58:09;7.80;99.90
16160;DHT22;8185;57.818;15.224;2023-04-24T07:00:36;7.80;99.90
16160;DHT22;8185;57.818;15.224;2023-04-24T07:03:03;7.90;99.90
16160;DHT22;8185;57.818;15.224;2023-04-24T07:05:31;7.90;99.90
16160;DHT22;8185;57.818;15.224;2023-04-24T07:08:01;7.90;99.90
16160;DHT22;8185;57.818;15.224;2023-04-24T07:10:28;8.20;99.90
16160;DHT22;8185;57.818;15.224;2023-04-24T07:12:56;8.00;99.90
16160;DHT22;8185;57.818;15.224;2023-04-24T07:15:23;7.80;99.90
16160;DHT22;8185;57.818;15.224;2023-04-24T07:17:50;8.00;99.90
16160;DHT22;8185;57.818;15.224;2023-04-24T07:20:17;8.30;99.90
16160;DHT22;8185;57.818;15.224;2023-04-24T07:22:45;8.40;99.90
16160;DHT22;8185;57.818;15.224;2023-04-24T07:25:15;8.30;99.90
16160;DHT22;8185;57.818;15.224;2023-04-24T07:27:43;8.20;99.90
16160;DHT22;8185;57.818;15.224;2023-04-24T07:30:11;8.40;99.90
16160;DHT22;8185;57.818;15.224;2023-04-24T07:32:38;8.60;99.90
16160;DHT22;8185;57.818;15.224;2023-04-24T07:35:06;8.60;99.90
16160;DHT22;8185;57.818;15.224;2023-04-24T07:37:35;8.90;99.90
16160;DHT22;8185;57.818;15.224;2023-04-24T07:40:03;8.90;99.90
16160;DHT22;8185;57.818;15.224;2023-04-24T07:42:31;8.90;99.90
16160;DHT22;8185;57.818;15.224;2023-04-24T07:45:00;9.00;99.90
16160;DHT22;8185;57.818;15.224;2023-04-24T07:47:27;9.20;99.90
16160;DHT22;8185;57.818;15.224;2023-04-24T07:49:54;9.30;99.90
16160;DHT22;8185;57.818;15.224;2023-04-24T07:52:22;9.40;99.90
16160;DHT22;8185;57.818;15.224;2023-04-24T07:54:49;9.70;99.90
16160;DHT22;8185;57.818;15.224;2023-04-24T07:57:18;9.70;99.90
16160;DHT22;8185;57.818;15.224;2023-04-24T07:59:47;10.00;99.90
16160;DHT22;8185;57.818;15.224;2023-04-24T08:02:14;10.00;99.90
16160;DHT22;8185;57.818;15.224;2023-04-24T08:04:42;10.10;99.90
16160;DHT22;8185;57.818;15.224;2023-04-24T08:07:09;10.30;99.90
16160;DHT22;8185;57.818;15.224;2023-04-24T08:09:38;10.30;99.90
16160;DHT22;8185;57.818;15.224;2023-04-24T08:12:06;10.30;99.90
16160;DHT22;8185;57.818;15.224;2023-04-24T08:14:33;10.20;99.90
16160;DHT22;8185;57.818;15.224;2023-04-24T08:17:02;10.20;99.90
16160;DHT22;8185;57.818;15.224;2023-04-24T08:19:29;10.70;99.90
16160;DHT22;8185;57.818;15.224;2023-04-24T08:21:56;11.10;99.90
16160;DHT22;8185;57.818;15.224;2023-04-24T08:24:24;11.40;99.90
16160;DHT22;8185;57.818;15.224;2023-04-24T08:26:51;11.20;99.90
16160;DHT22;8185;57.818;15.224;2023-04-24T08:29:20;11.50;99.90
16160;DHT22;8185;57.818;15.224;2023-04-24T08:31:47;11.70;99.90
16160;DHT22;8185;57.818;15.224;2023-04-24T08:34:16;12.00;99.90
16160;DHT22;8185;57.818;15.224;2023-04-24T08:36:43;12.10;99.90
16160;DHT22;8185;57.818;15.224;2023-04-24T08:39:11;12.20;99.90
16160;DHT22;8185;57.818;15.224;2023-04-24T08:41:41;12.40;99.90
16160;DHT22;8185;57.818;15.224;2023-04-24T08:44:09;12.60;99.90
16160;DHT22;8185;57.818;15.224;2023-04-24T08:46:37;12.90;99.90
16160;DHT22;8185;57.818;15.224;2023-04-24T08:49:04;13.00;99.90
16160;DHT22;8185;57.818;15.224;2023-04-24T08:51:33;12.90;99.90
16160;DHT22;8185;57.818;15.224;2023-04-24T08:54:01;12.70;99.90
16160;DHT22;8185;57.818;15.224;2023-04-24T08:56:29;12.50;99.90
16160;DHT22;8185;57.818;15.224;2023-04-24T08:58:57;12.30;99.90
16160;DHT22;8185;57.818;15.224;2023-04-24T09:01:25;12.10;99.90
16160;DHT22;8185;57.818;15.224;2023-04-24T09:03:55;12.20;99.90
16160;DHT22;8185;57.818;15.224;2023-04-24T09:06:23;12.20;99.90
16160;DHT22;8185;57.818;15.224;2023-04-24T09:08:54;12.00;99.90
16160;DHT22;8185;57.818;15.224;2023-04-24T09:11:23;12.10;99.90
16160;DHT22;8185;57.818;15.224;2023-04-24T09:13:51;11.90;99.90
16160;DHT22;8185;57.818;15.224;2023-04-24T09:16:19;11.70;99.90
16160;DHT22;8185;57.818;15.224;2023-04-24T09:18:49;11.80;99.90
16160;DHT22;8185;57.818;15.224;2023-04-24T09:21:20;11.80;99.90
16160;DHT22;8185;57.818;15.224;2023-04-24T09:23:59;12.00;99.90
16160;DHT22;8185;57.818;15.224;2023-04-24T09:26:29;12.20;99.90
16160;DHT22;8185;57.818;15.224;2023-04-24T09:28:59;12.30;99.90
16160;DHT22;8185;57.818;15.224;2023-04-24T09:31:28;12.40;99.90
16160;DHT22;8185;57.818;15.224;2023-04-24T09:33:57;12.50;99.90
16160;DHT22;8185;57.818;15.224;2023-04-24T09:36:29;12.70;99.90
16160;DHT22;8185;57.818;15.224;2023-04-24T09:39:01;12.90;99.90
16160;DHT22;8185;57.818;15.224;2023-04-24T09:41:28;12.90;99.90
16160;DHT22;8185;57.818;15.224;2023-04-24T09:43:56;13.00;99.90
16160;DHT22;8185;57.818;15.224;2023-04-24T09:46:30;13.10;99.90
16160;DHT22;8185;57.818;15.224;2023-04-24T09:48:58;13.40;99.90
16160;DHT22;8185;57.818;15.224;2023-04-24T09:51:36;13.30;99.90
16160;DHT22;8185;57.818;15.224;2023-04-24T09:54:14;13.10;99.90
16160;DHT22;8185;57.818;15.224;2023-04-24T09:56:43;13.20;99.90
16160;DHT22;8185;57.818;15.224;2023-04-24T09:59:12;13.30;99.90
16160;DHT22;8185;57.818;15.224;2023-04-24T10:01:39;13.60;99.90
16160;DHT22;8185;57.818;15.224;2023-04-24T10:04:17;13.70;99.90
16160;DHT22;8185;57.818;15.224;2023-04-24T10:06:46;13.90;99.90
16160;DHT22;8185;57.818;15.224;2023-04-24T10:09:16;14.00;99.90
16160;DHT22;8185;57.818;15.224;2023-04-24T10:11:45;13.70;99.90
16160;DHT22;8185;57.818;15.224;2023-04-24T10:14:15;13.50;99.90
16160;DHT22;8185;57.818;15.224;2023-04-24T10:16:44;13.50;99.90
16160;DHT22;8185;57.818;15.224;2023-04-24T10:19:13;13.60;99.90
16160;DHT22;8185;57.818;15.224;2023-04-24T10:21:41;13.50;99.90
16160;DHT22;8185;57.818;15.224;2023-04-24T10:24:13;13.50;99.90
16160;DHT22;8185;57.818;15.224;2023-04-24T10:26:43;13.20;99.90
16160;DHT22;8185;57.818;15.224;2023-04-24T10:29:11;13.10;99.90
16160;DHT22;8185;57.818;15.224;2023-04-24T10:31:39;13.30;99.90
16160;DHT22;8185;57.818;15.224;2023-04-24T10:34:07;13.40;99.90
16160;DHT22;8185;57.818;15.224;2023-04-24T10:36:35;13.70;99.90
16160;DHT22;8185;57.818;15.224;2023-04-24T10:39:07;13.80;99.90
16160;DHT22;8185;57.818;15.224;2023-04-24T10:41:37;13.70;99.90
16160;DHT22;8185;57.818;15.224;2023-04-24T10:44:07;13.40;99.90
16160;DHT22;8185;57.818;15.224;2023-04-24T10:46:35;13.20;99.90
16160;DHT22;8185;57.818;15.224;2023-04-24T10:49:04;13.20;99.90
16160;DHT22;8185;57.818;15.224;2023-04-24T10:51:48;13.50;99.90
16160;DHT22;8185;57.818;15.224;2023-04-24T10:54:26;13.90;99.90
16160;DHT22;8185;57.818;15.224;2023-04-24T10:57:25;13.60;99.90
16160;DHT22;8185;57.818;15.224;2023-04-24T11:00:12;13.80;99.90
16160;DHT22;8185;57.818;15.224;2023-04-24T11:02:40;13.80;99.90
16160;DHT22;8185;57.818;15.224;2023-04-24T11:05:15;13.90;99.90
16160;DHT22;8185;57.818;15.224;2023-04-24T11:08:10;14.30;99.90
16160;DHT22;8185;57.818;15.224;2023-04-24T11:10:39;13.90;99.90
16160;DHT22;8185;57.818;15.224;2023-04-24T11:13:07;14.00;99.90
16160;DHT22;8185;57.818;15.224;2023-04-24T11:15:36;14.00;99.90
16160;DHT22;8185;57.818;15.224;2023-04-24T11:18:03;14.30;99.90
16160;DHT22;8185;57.818;15.224;2023-04-24T11:20:31;14.10;99.90
16160;DHT22;8185;57.818;15.224;2023-04-24T11:23:03;14.60;99.90
16160;DHT22;8185;57.818;15.224;2023-04-24T11:25:32;14.80;99.90
16160;DHT22;8185;57.818;15.224;2023-04-24T11:28:05;15.10;99.90
16160;DHT22;8185;57.818;15.224;2023-04-24T11:30:33;15.30;99.90
16160;DHT22;8185;57.818;15.224;2023-04-24T11:33:05;15.40;99.90
16160;DHT22;8185;57.818;15.224;2023-04-24T11:35:38;15.40;99.90
16160;DHT22;8185;57.818;15.224;2023-04-24T11:38:06;15.80;99.90
16160;DHT22;8185;57.818;15.224;2023-04-24T11:40:34;15.90;99.90
16160;DHT22;8185;57.818;15.224;2023-04-24T11:43:04;16.10;99.90
16160;DHT22;8185;57.818;15.224;2023-04-24T11:45:32;15.80;99.90
16160;DHT22;8185;57.818;15.224;2023-04-24T11:47:59;15.30;99.90
16160;DHT22;8185;57.818;15.224;2023-04-24T11:50:28;15.10;99.90
16160;DHT22;8185;57.818;15.224;2023-04-24T11:52:56;14.90;99.90
16160;DHT22;8185;57.818;15.224;2023-04-24T11:55:25;14.60;99.90
16160;DHT22;8185;57.818;15.224;2023-04-24T11:57:54;14.70;99.90
16160;DHT22;8185;57.818;15.224;2023-04-24T12:00:24;14.40;99.90
16160;DHT22;8185;57.818;15.224;2023-04-24T12:03:02;14.40;99.90
16160;DHT22;8185;57.818;15.224;2023-04-24T12:05:32;14.40;99.90
16160;DHT22;8185;57.818;15.224;2023-04-24T12:08:00;14.60;99.90
16160;DHT22;8185;57.818;15.224;2023-04-24T12:10:28;14.80;99.90
16160;DHT22;8185;57.818;15.224;2023-04-24T12:12:57;14.60;99.90
16160;DHT22;8185;57.818;15.224;2023-04-24T12:15:26;14.40;99.90
16160;DHT22;8185;57.818;15.224;2023-04-24T12:17:55;14.20;99.90
16160;DHT22;8185;57.818;15.224;2023-04-24T12:20:28;14.20;99.90
16160;DHT22;8185;57.818;15.224;2023-04-24T12:22:58;14.50;99.90
16160;DHT22;8185;57.818;15.224;2023-04-24T12:25:28;14.40;99.90
16160;DHT22;8185;57.818;15.224;2023-04-24T12:28:09;14.10;99.90
16160;DHT22;8185;57.818;15.224;2023-04-24T12:30:41;14.00;99.90
16160;DHT22;8185;57.818;15.224;2023-04-24T12:33:10;14.00;99.90
16160;DHT22;8185;57.818;15.224;2023-04-24T12:35:39;13.90;99.90
16160;DHT22;8185;57.818;15.224;2023-04-24T12:38:09;13.80;99.90
16160;DHT22;8185;57.818;15.224;2023-04-24T12:40:38;13.80;99.90
16160;DHT22;8185;57.818;15.224;2023-04-24T12:43:13;13.80;99.90
16160;DHT22;8185;57.818;15.224;2023-04-24T12:45:41;13.70;99.90
16160;DHT22;8185;57.818;15.224;2023-04-24T12:48:08;13.90;99.90
16160;DHT22;8185;57.818;15.224;2023-04-24T12:50:36;14.00;99.90
16160;DHT22;8185;57.818;15.224;2023-04-24T12:53:03;14.20;99.90
16160;DHT22;8185;57.818;15.224;2023-04-24T12:55:33;14.40;99.90
16160;DHT22;8185;57.818;15.224;2023-04-24T12:58:00;14.50;99.90
16160;DHT22;8185;57.818;15.224;2023-04-24T13:00:29;14.90;99.90
16160;DHT22;8185;57.818;15.224;2023-04-24T13:02:56;15.00;99.90
16160;DHT22;8185;57.818;15.224;2023-04-24T13:05:23;15.20;99.90
16160;DHT22;8185;57.818;15.224;2023-04-24T13:07:50;15.30;99.90
16160;DHT22;8185;57.818;15.224;2023-04-24T13:10:18;15.00;99.90
16160;DHT22;8185;57.818;15.224;2023-04-24T13:12:46;14.90;99.90
16160;DHT22;8185;57.818;15.224;2023-04-24T13:15:14;14.30;99.90
16160;DHT22;8185;57.818;15.224;2023-04-24T13:17:41;14.30;99.90
16160;DHT22;8185;57.818;15.224;2023-04-24T13:20:09;14.20;99.90
16160;DHT22;8185;57.818;15.224;2023-04-24T13:22:36;14.20;99.90
16160;DHT22;8185;57.818;15.224;2023-04-24T13:25:04;14.20;99.90
16160;DHT22;8185;57.818;15.224;2023-04-24T13:27:33;13.90;99.90
16160;DHT22;8185;57.818;15.224;2023-04-24T13:30:01;14.00;99.90
16160;DHT22;8185;57.818;15.224;2023-04-24T13:32:29;14.00;99.90
16160;DHT22;8185;57.818;15.224;2023-04-24T13:34:56;14.00;99.90
16160;DHT22;8185;57.818;15.224;2023-04-24T13:37:24;13.90;99.90
16160;DHT22;8185;57.818;15.224;2023-04-24T13:39:51;13.70;99.90
16160;DHT22;8185;57.818;15.224;2023-04-24T13:42:19;13.50;99.90
16160;DHT22;8185;57.818;15.224;2023-04-24T13:44:47;13.70;99.90
16160;DHT22;8185;57.818;15.224;2023-04-24T13:47:15;14.10;99.90
16160;DHT22;8185;57.818;15.224;2023-04-24T13:49:42;14.10;99.90
16160;DHT22;8185;57.818;15.224;2023-04-24T13:52:10;14.30;99.90
16160;DHT22;8185;57.818;15.224;2023-04-24T13:54:37;14.60;99.90
16160;DHT22;8185;57.818;15.224;2023-04-24T13:57:04;14.80;99.90
16160;DHT22;8185;57.818;15.224;2023-04-24T13:59:31;14.90;99.90
16160;DHT22;8185;57.818;15.224;2023-04-24T14:01:58;15.00;99.90
16160;DHT22;8185;57.818;15.224;2023-04-24T14:04:27;15.10;99.90
16160;DHT22;8185;57.818;15.224;2023-04-24T14:06:54;15.30;99.90
16160;DHT22;8185;57.818;15.224;2023-04-24T14:09:22;15.50;99.90
16160;DHT22;8185;57.818;15.224;2023-04-24T14:11:49;15.90;99.90
16160;DHT22;8185;57.818;15.224;2023-04-24T14:14:16;16.20;99.90
16160;DHT22;8185;57.818;15.224;2023-04-24T14:16:43;15.30;99.90
16160;DHT22;8185;57.818;15.224;2023-04-24T14:19:11;15.10;99.90
16160;DHT22;8185;57.818;15.224;2023-04-24T14:21:39;14.80;99.90
16160;DHT22;8185;57.818;15.224;2023-04-24T14:24:07;14.50;99.90
16160;DHT22;8185;57.818;15.224;2023-04-24T14:26:35;14.30;99.90
16160;DHT22;8185;57.818;15.224;2023-04-24T14:29:02;14.00;99.90
16160;DHT22;8185;57.818;15.224;2023-04-24T14:31:29;13.90;99.90
16160;DHT22;8185;57.818;15.224;2023-04-24T14:33:57;13.60;99.90
16160;DHT22;8185;57.818;15.224;2023-04-24T14:36:24;13.60;99.90
16160;DHT22;8185;57.818;15.224;2023-04-24T14:38:53;13.50;99.90
16160;DHT22;8185;57.818;15.224;2023-04-24T14:41:20;13.40;99.90
16160;DHT22;8185;57.818;15.224;2023-04-24T14:43:47;13.50;99.90
16160;DHT22;8185;57.818;15.224;2023-04-24T14:46:14;13.60;99.90
16160;DHT22;8185;57.818;15.224;2023-04-24T14:48:41;13.80;99.90
16160;DHT22;8185;57.818;15.224;2023-04-24T14:51:08;13.90;99.90
16160;DHT22;8185;57.818;15.224;2023-04-24T14:53:36;14.10;99.90
16160;DHT22;8185;57.818;15.224;2023-04-24T14:56:05;14.10;99.90
16160;DHT22;8185;57.818;15.224;2023-04-24T14:58:32;13.70;99.90
16160;DHT22;8185;57.818;15.224;2023-04-24T15:00:59;13.60;99.90
16160;DHT22;8185;57.818;15.224;2023-04-24T15:03:27;13.70;99.90
16160;DHT22;8185;57.818;15.224;2023-04-24T15:05:54;13.50;99.90
16160;DHT22;8185;57.818;15.224;2023-04-24T15:08:22;13.30;99.90
16160;DHT22;8185;57.818;15.224;2023-04-24T15:10:49;13.30;99.90
16160;DHT22;8185;57.818;15.224;2023-04-24T15:13:18;13.10;99.90
16160;DHT22;8185;57.818;15.224;2023-04-24T15:15:46;13.00;99.90
16160;DHT22;8185;57.818;15.224;2023-04-24T15:18:13;13.10;99.90
16160;DHT22;8185;57.818;15.224;2023-04-24T15:20:41;13.00;99.90
16160;DHT22;8185;57.818;15.224;2023-04-24T15:23:08;12.90;99.90
16160;DHT22;8185;57.818;15.224;2023-04-24T15:25:36;12.90;99.90
16160;DHT22;8185;57.818;15.224;2023-04-24T15:28:03;13.00;99.90
16160;DHT22;8185;57.818;15.224;2023-04-24T15:30:33;13.00;99.90
16160;DHT22;8185;57.818;15.224;2023-04-24T15:33:00;12.90;99.90
16160;DHT22;8185;57.818;15.224;2023-04-24T15:35:27;13.10;99.90
16160;DHT22;8185;57.818;15.224;2023-04-24T15:37:54;13.10;99.90
16160;DHT22;8185;57.818;15.224;2023-04-24T15:40:22;13.00;99.90
16160;DHT22;8185;57.818;15.224;2023-04-24T15:42:49;12.90;99.90
16160;DHT22;8185;57.818;15.224;2023-04-24T15:45:16;12.60;99.90